createdAt,value
2023-12-22T00:00:30.016Z,64.32
2023-12-22T00:03:18.358Z,63.63
2023-12-22T00:05:46.903Z,63.60
2023-12-22T00:08:15.106Z,63.73
2023-12-22T00:10:43.456Z,63.85
2023-12-22T00:13:11.882Z,64.02
2023-12-22T00:15:40.237Z,64.31
2023-12-22T00:18:08.507Z,64.36
2023-12-22T00:20:37.600Z,64.08
2023-12-22T00:23:05.786Z,64.10
2023-12-22T00:25:34.130Z,64.32
2023-12-22T00:28:02.346Z,64.16
2023-12-22T00:30:30.655Z,64.09
2023-12-22T00:32:59.033Z,63.57
2023-12-22T00:35:27.515Z,63.54
2023-12-22T00:37:55.883Z,63.29
2023-12-22T00:40:24.298Z,62.54
2023-12-22T00:42:52.658Z,62.58
2023-12-22T00:45:21.135Z,63.08
2023-12-22T00:47:49.611Z,63.22
2023-12-22T00:50:18.658Z,62.72
2023-12-22T00:52:47.044Z,61.81
2023-12-22T00:55:15.848Z,61.50
2023-12-22T00:57:44.406Z,61.16
2023-12-22T01:00:13.667Z,60.50
2023-12-22T01:02:42.040Z,60.75
2023-12-22T01:05:10.594Z,59.96
2023-12-22T01:07:39.237Z,59.43
2023-12-22T01:10:08.290Z,59.94
2023-12-22T01:12:36.591Z,59.87
2023-12-22T01:15:05.877Z,59.61
2023-12-22T01:17:34.189Z,58.69
2023-12-22T01:20:02.581Z,59.03
2023-12-22T01:22:32.469Z,59.39
2023-12-22T01:25:01.183Z,58.41
2023-12-22T01:27:29.688Z,58.86
2023-12-22T01:29:58.139Z,58.59
2023-12-22T01:32:26.378Z,58.56
2023-12-22T01:34:54.759Z,58.13
2023-12-22T01:37:24.778Z,57.98
2023-12-22T01:39:52.945Z,57.83
2023-12-22T01:42:21.374Z,57.30
2023-12-22T01:44:49.644Z,57.86
2023-12-22T01:47:18.168Z,57.75
2023-12-22T01:49:46.771Z,57.57
2023-12-22T01:52:16.393Z,57.16
2023-12-22T01:54:44.734Z,57.38
2023-12-22T01:57:18.903Z,57.29
2023-12-22T01:59:49.893Z,57.33
2023-12-22T02:02:18.397Z,57.26
2023-12-22T02:04:48.231Z,56.95
2023-12-22T02:07:17.015Z,57.30
2023-12-22T02:09:45.345Z,57.52
2023-12-22T02:12:13.639Z,56.86
2023-12-22T02:14:42.211Z,56.76
2023-12-22T02:17:34.189Z,57.46
2023-12-22T02:20:02.874Z,57.29
2023-12-22T02:22:31.692Z,57.36
2023-12-22T02:25:00.153Z,57.42
2023-12-22T02:27:34.607Z,57.24
2023-12-22T02:30:10.835Z,57.89
2023-12-22T02:32:43.333Z,57.85
2023-12-22T02:35:16.555Z,57.93
2023-12-22T02:37:48.464Z,57.72
2023-12-22T02:40:18.755Z,58.12
2023-12-22T02:42:48.127Z,58.00
2023-12-22T02:45:18.585Z,58.12
2023-12-22T02:47:48.172Z,57.89
2023-12-22T02:50:18.140Z,58.08
2023-12-22T02:52:46.492Z,57.88
2023-12-22T02:55:15.301Z,57.84
2023-12-22T02:57:43.889Z,58.06
2023-12-22T03:00:12.880Z,57.91
2023-12-22T03:02:41.305Z,57.81
2023-12-22T03:05:10.124Z,58.17
2023-12-22T03:07:38.407Z,58.20
2023-12-22T03:10:07.413Z,58.20
2023-12-22T03:12:35.741Z,57.92
2023-12-22T03:15:04.824Z,58.29
2023-12-22T03:17:33.172Z,58.09
2023-12-22T03:20:01.531Z,58.15
2023-12-22T03:22:29.914Z,58.32
2023-12-22T03:24:58.236Z,58.24
2023-12-22T03:27:26.408Z,58.40
2023-12-22T03:29:54.791Z,58.37
2023-12-22T03:32:23.023Z,58.54
2023-12-22T03:34:51.427Z,58.23
2023-12-22T03:37:19.843Z,58.25
2023-12-22T03:39:48.099Z,58.25
2023-12-22T03:42:16.354Z,58.00
2023-12-22T03:44:44.696Z,58.11
2023-12-22T03:47:13.097Z,58.25
2023-12-22T03:49:41.466Z,58.20
2023-12-22T03:52:09.810Z,58.02
2023-12-22T03:54:38.038Z,57.03
2023-12-22T03:57:06.336Z,56.94
2023-12-22T03:59:34.614Z,56.77
2023-12-22T04:02:03.595Z,56.39
2023-12-22T04:04:32.321Z,55.86
2023-12-22T04:07:00.890Z,55.83
2023-12-22T04:09:29.148Z,55.69
2023-12-22T04:11:57.340Z,55.55
2023-12-22T04:14:25.486Z,55.70
2023-12-22T04:16:54.547Z,55.70
2023-12-22T04:19:23.254Z,55.96
2023-12-22T04:21:51.670Z,55.66
2023-12-22T04:24:19.951Z,55.95
2023-12-22T04:26:48.420Z,56.13
2023-12-22T04:29:17.250Z,55.87
2023-12-22T04:31:46.244Z,56.54
2023-12-22T04:34:17.350Z,56.37
2023-12-22T04:36:45.774Z,56.79
2023-12-22T04:39:14.093Z,57.22
2023-12-22T04:41:42.733Z,57.17
2023-12-22T04:44:11.199Z,57.00
2023-12-22T04:46:39.498Z,57.23
2023-12-22T04:49:07.984Z,57.21
2023-12-22T04:51:36.343Z,57.37
2023-12-22T04:54:04.557Z,57.14
2023-12-22T04:56:33.642Z,57.05
2023-12-22T04:59:01.922Z,57.19
2023-12-22T05:01:30.333Z,57.02
2023-12-22T05:03:58.676Z,56.92
2023-12-22T05:06:27.041Z,57.03
2023-12-22T05:08:55.340Z,57.31
2023-12-22T05:11:24.139Z,57.23
2023-12-22T05:13:52.428Z,56.84
2023-12-22T05:16:21.630Z,57.13
2023-12-22T05:18:49.925Z,56.90
2023-12-22T05:21:18.169Z,57.25
2023-12-22T05:23:46.334Z,57.27
2023-12-22T05:26:21.745Z,57.35
2023-12-22T05:28:53.440Z,57.52
2023-12-22T05:31:21.737Z,57.24
2023-12-22T05:33:49.997Z,57.54
2023-12-22T05:36:18.684Z,57.57
2023-12-22T05:38:48.519Z,57.51
2023-12-22T05:41:16.739Z,57.42
2023-12-22T05:43:45.020Z,57.41
2023-12-22T05:46:13.322Z,57.58
2023-12-22T05:48:41.601Z,57.88
2023-12-22T05:51:14.767Z,57.60
2023-12-22T05:53:43.300Z,57.56
2023-12-22T05:56:23.758Z,57.47
2023-12-22T05:58:52.168Z,57.76
2023-12-22T06:01:20.506Z,57.66
2023-12-22T06:03:49.714Z,57.99
2023-12-22T06:06:19.928Z,58.26
2023-12-22T06:08:48.469Z,58.00
2023-12-22T06:11:19.279Z,58.10
2023-12-22T06:13:47.532Z,57.90
2023-12-22T06:16:16.281Z,57.96
2023-12-22T06:18:45.878Z,57.52
2023-12-22T06:21:14.164Z,57.62
2023-12-22T06:23:42.539Z,57.63
2023-12-22T06:26:12.859Z,57.42
2023-12-22T06:28:42.301Z,57.58
2023-12-22T06:31:22.185Z,57.85
2023-12-22T06:33:53.068Z,58.21
2023-12-22T06:36:26.286Z,57.96
2023-12-22T06:38:56.099Z,58.25
2023-12-22T06:41:28.183Z,58.54
2023-12-22T06:43:58.884Z,58.32
2023-12-22T06:46:28.104Z,58.64
2023-12-22T06:48:57.762Z,58.30
2023-12-22T06:51:27.691Z,57.93
2023-12-22T06:53:57.236Z,58.13
2023-12-22T06:56:27.753Z,57.71
2023-12-22T06:58:58.851Z,57.53
2023-12-22T07:01:29.958Z,57.32
2023-12-22T07:03:58.967Z,57.17
2023-12-22T07:06:29.489Z,57.37
2023-12-22T07:09:20.664Z,57.23
2023-12-22T07:11:54.156Z,57.22
2023-12-22T07:14:23.801Z,57.33
2023-12-22T07:16:52.334Z,57.35
2023-12-22T07:19:20.746Z,57.38
2023-12-22T07:21:49.080Z,57.58
2023-12-22T07:24:17.283Z,57.73
2023-12-22T07:26:48.089Z,57.65
2023-12-22T07:29:16.406Z,57.93
2023-12-22T07:31:46.496Z,57.76
2023-12-22T07:34:16.488Z,57.50
2023-12-22T07:36:51.212Z,57.65
2023-12-22T07:39:27.490Z,57.38
2023-12-22T07:41:56.676Z,57.76
2023-12-22T07:44:25.448Z,57.99
2023-12-22T07:47:02.727Z,58.15
2023-12-22T07:49:32.959Z,58.17
2023-12-22T07:52:04.055Z,58.22
2023-12-22T07:54:32.676Z,58.40
2023-12-22T07:57:02.132Z,58.40
2023-12-22T07:59:32.449Z,58.39
2023-12-22T08:02:01.982Z,58.57
2023-12-22T08:04:30.596Z,58.68
2023-12-22T08:06:59.290Z,58.60
2023-12-22T08:09:27.699Z,58.56
2023-12-22T08:11:58.333Z,58.63
2023-12-22T08:14:26.980Z,58.77
2023-12-22T08:16:55.288Z,58.93
2023-12-22T08:19:25.239Z,59.12
2023-12-22T08:21:56.314Z,59.06
2023-12-22T08:24:25.012Z,58.86
2023-12-22T08:26:53.613Z,58.81
2023-12-22T08:29:21.972Z,58.53
2023-12-22T08:31:50.318Z,58.33
2023-12-22T08:34:18.557Z,58.14
2023-12-22T08:36:47.419Z,58.24
2023-12-22T08:39:16.095Z,58.24
2023-12-22T08:41:45.115Z,58.11
2023-12-22T08:44:16.178Z,57.64
2023-12-22T08:46:44.891Z,57.64
2023-12-22T08:49:13.379Z,57.40
2023-12-22T08:51:42.742Z,57.14
2023-12-22T08:54:11.084Z,57.02
2023-12-22T08:56:39.463Z,56.89
2023-12-22T08:59:10.314Z,56.86
2023-12-22T09:01:39.081Z,56.72
2023-12-22T09:04:09.641Z,56.99
2023-12-22T09:06:38.514Z,57.02
2023-12-22T09:09:07.760Z,56.96
2023-12-22T09:11:36.489Z,57.25
2023-12-22T09:14:10.891Z,57.22
2023-12-22T09:16:39.731Z,57.26
2023-12-22T09:19:08.094Z,57.61
2023-12-22T09:21:36.727Z,57.61
2023-12-22T09:24:06.632Z,57.73
2023-12-22T09:26:34.943Z,57.94
2023-12-22T09:29:03.583Z,58.02
2023-12-22T09:31:31.944Z,58.03
2023-12-22T09:34:00.386Z,58.18
2023-12-22T09:36:28.908Z,58.43
2023-12-22T09:38:57.105Z,58.40
2023-12-22T09:41:25.307Z,58.36
2023-12-22T09:43:57.431Z,58.31
2023-12-22T09:46:28.042Z,58.59
2023-12-22T09:48:56.276Z,58.81
2023-12-22T09:51:24.506Z,59.19
2023-12-22T09:53:54.158Z,59.08
2023-12-22T09:56:25.210Z,59.13
2023-12-22T09:58:56.292Z,59.27
2023-12-22T10:01:26.263Z,59.34
2023-12-22T10:03:54.831Z,59.31
2023-12-22T10:06:23.290Z,59.24
2023-12-22T10:08:52.908Z,59.27
2023-12-22T10:11:23.168Z,59.06
2023-12-22T10:13:54.170Z,58.98
2023-12-22T10:16:23.004Z,58.88
2023-12-22T10:18:52.665Z,58.90
2023-12-22T10:21:21.058Z,58.83
2023-12-22T10:23:49.727Z,58.76
2023-12-22T10:26:18.523Z,58.89
2023-12-22T10:28:50.101Z,58.98
2023-12-22T10:31:19.009Z,58.92
2023-12-22T10:33:47.357Z,58.97
2023-12-22T10:36:16.308Z,58.94
2023-12-22T10:38:46.213Z,58.78
2023-12-22T10:41:14.686Z,58.75
2023-12-22T10:43:43.227Z,58.53
2023-12-22T10:46:14.373Z,58.48
2023-12-22T10:48:42.952Z,58.28
2023-12-22T10:51:12.332Z,58.47
2023-12-22T10:53:44.284Z,58.37
2023-12-22T10:56:13.223Z,58.72
2023-12-22T10:58:43.993Z,58.62
2023-12-22T11:01:15.476Z,58.28
2023-12-22T11:03:46.203Z,58.33
2023-12-22T11:06:17.538Z,58.07
2023-12-22T11:08:48.277Z,58.09
2023-12-22T11:11:31.024Z,57.66
2023-12-22T11:14:00.878Z,57.74
2023-12-22T11:16:30.772Z,57.68
2023-12-22T11:19:00.442Z,57.42
2023-12-22T11:21:32.293Z,57.06
2023-12-22T11:24:01.513Z,56.64
2023-12-22T11:26:30.763Z,55.72
2023-12-22T11:29:00.657Z,55.22
2023-12-22T11:31:32.818Z,54.66
2023-12-22T11:34:09.731Z,55.21
2023-12-22T11:36:42.169Z,54.85
2023-12-22T11:39:10.472Z,53.44
2023-12-22T11:41:40.756Z,53.90
2023-12-22T11:44:09.977Z,53.92
2023-12-22T11:46:38.719Z,53.95
2023-12-22T11:49:08.232Z,53.62
2023-12-22T11:51:37.066Z,55.62
2023-12-22T11:54:05.516Z,57.21
2023-12-22T11:56:35.960Z,58.92
2023-12-22T11:59:04.273Z,60.97
2023-12-22T12:01:39.583Z,61.62
2023-12-22T12:04:08.098Z,63.72
2023-12-22T12:06:38.540Z,64.76
2023-12-22T12:09:11.233Z,65.42
2023-12-22T12:11:59.647Z,66.89
2023-12-22T12:14:32.856Z,68.73
2023-12-22T12:17:12.056Z,69.68
2023-12-22T12:19:43.753Z,69.93
2023-12-22T12:22:15.129Z,70.43
2023-12-22T12:24:44.249Z,70.10
2023-12-22T12:27:12.834Z,69.83
2023-12-22T12:29:41.250Z,72.05
2023-12-22T12:32:09.977Z,71.72
2023-12-22T12:34:39.269Z,73.48
2023-12-22T12:37:08.148Z,75.17
2023-12-22T12:39:38.497Z,76.49
2023-12-22T12:42:09.704Z,76.30
2023-12-22T12:44:39.012Z,76.77
2023-12-22T12:47:16.865Z,79.10
2023-12-22T12:49:45.657Z,79.16
2023-12-22T12:52:17.230Z,78.63
2023-12-22T12:54:46.440Z,78.80
2023-12-22T12:57:16.966Z,78.89
2023-12-22T12:59:52.367Z,78.72
2023-12-22T13:02:25.503Z,80.07
2023-12-22T13:04:53.954Z,80.38
2023-12-22T13:07:27.156Z,80.54
2023-12-22T13:09:57.561Z,80.54
2023-12-22T13:12:27.535Z,81.32
2023-12-22T13:14:55.850Z,81.95
2023-12-22T13:17:24.528Z,81.21
2023-12-22T13:19:53.440Z,80.34
2023-12-22T13:22:21.850Z,79.47
2023-12-22T13:24:58.152Z,78.46
2023-12-22T13:27:26.509Z,78.97
2023-12-22T13:29:55.517Z,78.30
2023-12-22T13:32:29.240Z,77.89
2023-12-22T13:34:58.638Z,76.87
2023-12-22T13:37:32.214Z,76.17
2023-12-22T13:40:01.431Z,75.87
2023-12-22T13:42:30.071Z,75.78
2023-12-22T13:44:58.452Z,75.62
2023-12-22T13:47:28.157Z,75.66
2023-12-22T13:49:59.081Z,75.64
2023-12-22T13:52:38.155Z,76.33
2023-12-22T13:55:13.553Z,76.37
2023-12-22T13:57:41.926Z,76.38
2023-12-22T14:00:25.409Z,76.08
2023-12-22T14:02:54.586Z,76.22
2023-12-22T14:05:23.186Z,76.47
2023-12-22T14:07:52.528Z,76.42
2023-12-22T14:10:21.386Z,76.80
2023-12-22T14:12:49.594Z,75.75
2023-12-22T14:15:18.738Z,75.81
2023-12-22T14:17:48.159Z,76.64
2023-12-22T14:20:16.930Z,76.72
2023-12-22T14:22:45.564Z,77.06
2023-12-22T14:25:13.998Z,77.86
2023-12-22T14:27:42.597Z,78.19
2023-12-22T14:30:11.757Z,77.92
2023-12-22T14:32:40.954Z,78.86
2023-12-22T14:35:09.261Z,78.53
2023-12-22T14:37:38.235Z,79.82
2023-12-22T14:40:07.205Z,80.11
2023-12-22T14:42:35.444Z,80.27
2023-12-22T14:45:04.253Z,79.23
2023-12-22T14:47:32.771Z,77.90
2023-12-22T14:50:05.170Z,80.23
2023-12-22T14:52:34.125Z,80.72
2023-12-22T14:55:02.870Z,81.00
2023-12-22T14:57:31.466Z,81.05
2023-12-22T15:00:00.623Z,81.04
2023-12-22T15:02:29.698Z,80.65
2023-12-22T15:05:01.285Z,80.84
2023-12-22T15:07:30.418Z,81.39
2023-12-22T15:10:00.484Z,81.17
2023-12-22T15:12:33.835Z,80.65
2023-12-22T15:15:03.054Z,80.39
2023-12-22T15:17:34.741Z,81.51
2023-12-22T15:20:12.312Z,83.70
2023-12-22T15:22:41.766Z,82.05
2023-12-22T15:25:10.236Z,82.08
2023-12-22T15:27:40.159Z,82.96
2023-12-22T15:30:08.813Z,84.15
2023-12-22T15:32:37.109Z,83.01
2023-12-22T15:35:05.819Z,82.99
2023-12-22T15:37:36.363Z,83.25
2023-12-22T15:40:05.423Z,83.57
2023-12-22T15:42:33.744Z,84.41
2023-12-22T15:45:01.998Z,84.91
2023-12-22T15:47:30.363Z,84.85
2023-12-22T15:49:58.746Z,84.67
2023-12-22T15:52:27.090Z,85.24
2023-12-22T15:54:55.335Z,83.75
2023-12-22T15:57:23.548Z,85.05
2023-12-22T15:59:52.476Z,86.13
2023-12-22T16:02:20.873Z,86.52
2023-12-22T16:04:49.157Z,84.59
2023-12-22T16:07:17.419Z,85.33
2023-12-22T16:09:45.624Z,85.96
2023-12-22T16:12:13.833Z,85.60
2023-12-22T16:14:42.533Z,84.50
2023-12-22T16:17:10.877Z,84.63
2023-12-22T16:19:40.775Z,84.89
2023-12-22T16:22:08.997Z,84.73
2023-12-22T16:24:40.548Z,85.01
2023-12-22T16:27:08.871Z,84.48
2023-12-22T16:29:41.013Z,83.48
2023-12-22T16:32:12.287Z,84.26
2023-12-22T16:34:48.213Z,84.88
2023-12-22T16:37:18.029Z,85.88
2023-12-22T16:39:54.346Z,85.21
2023-12-22T16:42:23.001Z,85.07
2023-12-22T16:44:52.103Z,86.71
2023-12-22T16:47:20.751Z,84.58
2023-12-22T16:49:49.493Z,85.06
2023-12-22T16:52:18.253Z,85.38
2023-12-22T16:54:46.682Z,85.18
2023-12-22T16:57:16.332Z,86.30
2023-12-22T16:59:44.527Z,87.68
2023-12-22T17:02:27.466Z,87.03
2023-12-22T17:05:01.908Z,86.72
2023-12-22T17:07:34.075Z,86.45
2023-12-22T17:10:05.486Z,88.95
2023-12-22T17:12:34.524Z,88.25
2023-12-22T17:15:05.709Z,87.85
2023-12-22T17:17:34.818Z,88.30
2023-12-22T17:20:05.213Z,88.79
2023-12-22T17:22:33.720Z,87.30
2023-12-22T17:25:02.392Z,88.37
2023-12-22T17:27:30.805Z,87.79
2023-12-22T17:29:59.104Z,87.28
2023-12-22T17:32:27.332Z,88.52
2023-12-22T17:34:55.616Z,88.36
2023-12-22T17:37:24.077Z,88.18
2023-12-22T17:39:52.264Z,87.80
2023-12-22T17:42:20.454Z,89.20
2023-12-22T17:44:48.760Z,89.42
2023-12-22T17:47:16.977Z,89.66
2023-12-22T17:49:45.225Z,89.18
2023-12-22T17:52:13.501Z,88.86
2023-12-22T17:54:41.702Z,88.04
2023-12-22T17:57:13.829Z,88.63
2023-12-22T17:59:42.575Z,89.04
2023-12-22T18:02:17.143Z,88.90
2023-12-22T18:04:45.489Z,88.82
2023-12-22T18:07:13.864Z,87.29
2023-12-22T18:09:42.140Z,87.48
2023-12-22T18:12:10.516Z,87.91
2023-12-22T18:14:38.896Z,88.39
2023-12-22T18:17:07.226Z,88.14
2023-12-22T18:19:36.356Z,88.25
2023-12-22T18:22:04.662Z,87.21
2023-12-22T18:24:32.894Z,86.19
2023-12-22T18:27:01.216Z,86.30
2023-12-22T18:29:29.398Z,86.63
2023-12-22T18:31:57.863Z,87.11
2023-12-22T18:34:26.340Z,87.40
2023-12-22T18:36:54.913Z,87.62
2023-12-22T18:39:23.603Z,87.37
2023-12-22T18:41:52.032Z,87.16
2023-12-22T18:47:06.777Z,87.46
2023-12-22T18:49:35.301Z,87.44
2023-12-22T18:52:04.182Z,88.10
2023-12-22T18:54:32.491Z,88.51
2023-12-22T18:57:00.708Z,88.95
2023-12-22T18:59:29.215Z,89.05
2023-12-22T19:02:15.112Z,89.23
2023-12-22T19:04:47.104Z,89.33
2023-12-22T19:07:15.620Z,88.61
2023-12-22T19:09:44.710Z,88.10
2023-12-22T19:12:13.077Z,88.21
2023-12-22T19:14:41.493Z,88.59
2023-12-22T19:17:09.834Z,89.25
2023-12-22T19:19:38.172Z,90.12
2023-12-22T19:22:06.491Z,89.66
2023-12-22T19:24:35.004Z,90.06
2023-12-22T19:27:03.954Z,89.83
2023-12-22T19:29:32.345Z,90.25
2023-12-22T19:32:00.937Z,90.85
2023-12-22T19:34:31.231Z,90.19
2023-12-22T19:36:59.648Z,89.67
2023-12-22T19:39:28.001Z,90.20
2023-12-22T19:41:56.192Z,90.48
2023-12-22T19:44:24.548Z,90.11
2023-12-22T19:46:52.894Z,89.65
2023-12-22T19:49:24.212Z,90.41
2023-12-22T19:51:52.650Z,90.90
2023-12-22T19:54:20.863Z,90.74
2023-12-22T19:56:49.405Z,92.88
2023-12-22T19:59:17.706Z,95.10
2023-12-22T20:01:46.833Z,95.37
2023-12-22T20:04:15.884Z,94.83
2023-12-22T20:06:45.913Z,94.94
2023-12-22T20:09:14.340Z,94.95
2023-12-22T20:11:43.243Z,94.30
2023-12-22T20:14:12.280Z,94.58
2023-12-22T20:16:40.766Z,94.32
2023-12-22T20:19:09.708Z,93.20
2023-12-22T20:21:38.227Z,93.61
2023-12-22T20:24:07.248Z,94.10
2023-12-22T20:26:36.203Z,93.62
2023-12-22T20:29:04.562Z,93.34
2023-12-22T20:31:34.813Z,93.22
2023-12-22T20:34:03.173Z,92.36
2023-12-22T20:36:31.871Z,91.77
2023-12-22T20:39:00.541Z,91.18
2023-12-22T20:41:29.281Z,90.71
2023-12-22T20:43:57.745Z,91.11
2023-12-22T20:46:26.117Z,90.53
2023-12-22T20:48:54.642Z,90.77
2023-12-22T20:51:23.153Z,90.39
2023-12-22T20:53:51.531Z,90.44
2023-12-22T20:56:24.740Z,90.78
2023-12-22T20:58:53.570Z,90.48
2023-12-22T21:01:22.474Z,90.85
2023-12-22T21:03:50.805Z,90.83
2023-12-22T21:06:19.779Z,90.74
2023-12-22T21:08:48.953Z,90.37
2023-12-22T21:11:26.595Z,89.59
2023-12-22T21:13:55.732Z,90.19
2023-12-22T21:16:24.222Z,89.99
2023-12-22T21:18:52.592Z,90.15
2023-12-22T21:21:21.095Z,90.58
2023-12-22T21:23:49.388Z,90.12
2023-12-22T21:26:24.956Z,90.18
2023-12-22T21:28:55.682Z,90.01
2023-12-22T21:31:26.332Z,89.55
2023-12-22T21:33:55.000Z,89.43
2023-12-22T21:36:24.586Z,88.80
2023-12-22T21:38:54.070Z,88.77
2023-12-22T21:41:23.850Z,88.82
2023-12-22T21:43:52.433Z,88.68
2023-12-22T21:46:20.976Z,88.22
2023-12-22T21:51:36.041Z,88.59
2023-12-22T21:54:04.423Z,88.21
2023-12-22T21:56:32.825Z,87.99
2023-12-22T21:59:01.643Z,87.94
2023-12-22T22:01:30.302Z,87.66
2023-12-22T22:03:58.599Z,87.02
2023-12-22T22:06:28.114Z,86.39
2023-12-22T22:08:56.286Z,86.21
2023-12-22T22:11:24.454Z,85.57
2023-12-22T22:13:52.808Z,84.91
2023-12-22T22:16:21.080Z,84.04
2023-12-22T22:18:49.707Z,83.51
2023-12-22T22:21:17.967Z,82.57
2023-12-22T22:23:46.742Z,81.58
2023-12-22T22:26:15.439Z,81.19
2023-12-22T22:28:44.880Z,81.67
2023-12-22T22:31:13.083Z,81.63
2023-12-22T22:33:47.217Z,80.27
2023-12-22T22:36:16.963Z,79.91
2023-12-22T22:38:45.761Z,78.48
2023-12-22T22:41:14.103Z,77.14
2023-12-22T22:43:42.520Z,78.14
2023-12-22T22:46:15.024Z,77.82
2023-12-22T22:48:43.809Z,76.94
2023-12-22T22:51:23.586Z,75.11
2023-12-22T22:53:53.085Z,75.19
2023-12-22T22:56:22.070Z,76.76
2023-12-22T22:58:50.321Z,76.13
2023-12-22T23:01:18.621Z,75.20
2023-12-22T23:03:46.833Z,73.80
2023-12-22T23:06:15.181Z,74.19
2023-12-22T23:08:43.695Z,74.28
2023-12-22T23:11:12.476Z,73.75
2023-12-22T23:13:40.747Z,74.15
2023-12-22T23:16:09.067Z,74.03
2023-12-22T23:18:37.421Z,73.77
2023-12-22T23:21:08.594Z,73.12
2023-12-22T23:23:36.826Z,72.92
2023-12-22T23:26:05.430Z,72.57
2023-12-22T23:28:33.838Z,72.81
2023-12-22T23:31:04.157Z,71.68
2023-12-22T23:33:32.658Z,72.29
2023-12-22T23:36:09.611Z,73.21
2023-12-22T23:38:42.604Z,72.08
2023-12-22T23:41:11.077Z,72.64
2023-12-22T23:43:40.719Z,72.62
2023-12-22T23:46:09.035Z,72.72
2023-12-22T23:48:38.365Z,72.51
2023-12-22T23:51:07.560Z,72.75
2023-12-22T23:53:35.958Z,71.42
2023-12-22T23:56:04.486Z,71.23
2023-12-22T23:58:32.820Z,71.36
